Circe — FAE5416 — position and weather

sailwx.info

Track history (hours):
 
Tides and Currents Weather Stations Pressure Air Temp Water Temp Dewpoint Dewpoint Depression Visibility Wind Speed Wind Dir Waves Ship Positions

Circe

Last reported at 2017-Sep-21 07:52 UTC. Time now 2017-Oct-20 16:16 UTC.
Position N 38°25' W 009°21'.
Warning: this ship's position is 29 days out of date.

Length 13 m.

Type: Sailing vessel. MMSI: 227491360.

Date/timePositionNaut miles runAvg speedWind from/ knotsBaromVisibWave heightAir tempDewpointWater temp
2017-Sep-21 07:52N 38°25' W 009°21'3 6.4
2017-Sep-21 07:25N 38°28' W 009°22'4 6.0
2017-Sep-21 06:50N 38°32' W 009°23'3 6.1
2017-Sep-21 06:25N 38°34' W 009°23'3 6.3
2017-Sep-21 06:00N 38°37' W 009°24'3 6.0
2017-Sep-21 05:29N 38°40' W 009°24'2 0.2
2017-Sep-20 19:47N 38°42' W 009°25'0 0.0
2017-Sep-20 18:43N 38°42' W 009°25'0 0.1
2017-Sep-20 18:30N 38°42' W 009°25'0 0.4
2017-Sep-20 17:46N 38°42' W 009°25'0 0.0
2017-Sep-20 17:16N 38°42' W 009°25'0 0.2
2017-Sep-20 15:58N 38°42' W 009°25'0 0.0
2017-Sep-20 15:28N 38°42' W 009°25'0 0.0
2017-Sep-20 14:58N 38°42' W 009°25'0 0.0
2017-Sep-20 13:58N 38°42' W 009°24'0 0.0
2017-Sep-20 13:28N 38°42' W 009°25'0 0.0
2017-Sep-20 12:58N 38°42' W 009°25'0 0.0
2017-Sep-20 12:16N 38°42' W 009°25'0 0.0
2017-Sep-20 11:58N 38°42' W 009°25'1 1.5
2017-Sep-20 11:24N 38°41' W 009°25'1 2.1
2017-Sep-20 10:53N 38°40' W 009°25'2 2.7
2017-Sep-20 10:16N 38°38' W 009°26'1 4.0
2017-Sep-20 10:00N 38°37' W 009°26'1 2.0
2017-Sep-20 09:27N 38°36' W 009°26'0 0.6
2017-Sep-20 08:43N 38°36' W 009°26'0 0.4
2017-Sep-20 08:10N 38°36' W 009°26'0 0.2
2017-Sep-20 06:58N 38°36' W 009°27'0 0.2
2017-Sep-20 06:30N 38°36' W 009°27'0 0.2
2017-Sep-20 04:48N 38°36' W 009°26'0 0.8
2017-Sep-20 04:26N 38°35' W 009°26'0 1.1
2017-Sep-20 03:58N 38°36' W 009°26'1 0.5
2017-Sep-20 02:53N 38°36' W 009°27'0 0.5
2017-Sep-20 02:29N 38°36' W 009°27'0 0.6
2017-Sep-20 01:59N 38°37' W 009°27'1 0.9
2017-Sep-20 00:59N 38°37' W 009°28'1 1.4
2017-Sep-20 00:27N 38°38' W 009°29'2 5.1
2017-Sep-20 00:00N 38°40' W 009°30'3 6.6
2017-Sep-19 23:29N 38°43' W 009°32'3 6.7
2017-Sep-19 23:00N 38°46' W 009°33'3 6.8
2017-Sep-19 22:30N 38°49' W 009°34'3 6.1
2017-Sep-19 21:59N 38°53' W 009°35'2 3.8
2017-Sep-19 21:30N 38°54' W 009°35'2 3.7
2017-Sep-19 20:59N 38°56' W 009°35'2 4.5
2017-Sep-19 20:30N 38°58' W 009°35'3 6.3
2017-Sep-19 20:00N 39°02' W 009°35'3 6.5
2017-Sep-19 19:30N 39°05' W 009°35'  
Track history (hours):
 
Tides and Currents Weather Stations Pressure Air Temp Water Temp Dewpoint Dewpoint Depression Visibility Wind Speed Wind Dir Waves Ship Positions

Circe

Last reported at 2017-Sep-21 07:52 UTC. Time now 2017-Oct-20 16:16 UTC.
Position N 38°25' W 009°21'.
Warning: this ship's position is 29 days out of date.

Length 13 m.

Type: Sailing vessel. MMSI: 227491360.

Date/timePositionNaut miles runAvg speedWind from/ knotsBaromVisibWave heightAir tempDewpointWater temp
2017-Sep-21 07:52N 38°25' W 009°21'3 6.4
2017-Sep-21 07:25N 38°28' W 009°22'4 6.0
2017-Sep-21 06:50N 38°32' W 009°23'3 6.1
2017-Sep-21 06:25N 38°34' W 009°23'3 6.3
2017-Sep-21 06:00N 38°37' W 009°24'3 6.0
2017-Sep-21 05:29N 38°40' W 009°24'2 0.2
2017-Sep-20 19:47N 38°42' W 009°25'0 0.0
2017-Sep-20 18:43N 38°42' W 009°25'0 0.1
2017-Sep-20 18:30N 38°42' W 009°25'0 0.4
2017-Sep-20 17:46N 38°42' W 009°25'0 0.0
2017-Sep-20 17:16N 38°42' W 009°25'0 0.2
2017-Sep-20 15:58N 38°42' W 009°25'0 0.0
2017-Sep-20 15:28N 38°42' W 009°25'0 0.0
2017-Sep-20 14:58N 38°42' W 009°25'0 0.0
2017-Sep-20 13:58N 38°42' W 009°24'0 0.0
2017-Sep-20 13:28N 38°42' W 009°25'0 0.0
2017-Sep-20 12:58N 38°42' W 009°25'0 0.0
2017-Sep-20 12:16N 38°42' W 009°25'0 0.0
2017-Sep-20 11:58N 38°42' W 009°25'1 1.5
2017-Sep-20 11:24N 38°41' W 009°25'1 2.1
2017-Sep-20 10:53N 38°40' W 009°25'2 2.7
2017-Sep-20 10:16N 38°38' W 009°26'1 4.0
2017-Sep-20 10:00N 38°37' W 009°26'1 2.0
2017-Sep-20 09:27N 38°36' W 009°26'0 0.6
2017-Sep-20 08:43N 38°36' W 009°26'0 0.4
2017-Sep-20 08:10N 38°36' W 009°26'0 0.2
2017-Sep-20 06:58N 38°36' W 009°27'0 0.2
2017-Sep-20 06:30N 38°36' W 009°27'0 0.2
2017-Sep-20 04:48N 38°36' W 009°26'0 0.8
2017-Sep-20 04:26N 38°35' W 009°26'0 1.1
2017-Sep-20 03:58N 38°36' W 009°26'1 0.5
2017-Sep-20 02:53N 38°36' W 009°27'0 0.5
2017-Sep-20 02:29N 38°36' W 009°27'0 0.6
2017-Sep-20 01:59N 38°37' W 009°27'1 0.9
2017-Sep-20 00:59N 38°37' W 009°28'1 1.4
2017-Sep-20 00:27N 38°38' W 009°29'2 5.1
2017-Sep-20 00:00N 38°40' W 009°30'3 6.6
2017-Sep-19 23:29N 38°43' W 009°32'3 6.7
2017-Sep-19 23:00N 38°46' W 009°33'3 6.8
2017-Sep-19 22:30N 38°49' W 009°34'3 6.1
2017-Sep-19 21:59N 38°53' W 009°35'2 3.8
2017-Sep-19 21:30N 38°54' W 009°35'2 3.7
2017-Sep-19 20:59N 38°56' W 009°35'2 4.5
2017-Sep-19 20:30N 38°58' W 009°35'3 6.3
2017-Sep-19 20:00N 39°02' W 009°35'3 6.5
2017-Sep-19 19:30N 39°05' W 009°35'  

Dump ship's entire track history